Time;durP1;ratioP1;P1;durP2;ratioP2;P2;SDS_P1;SDS_P2;PMS_P1;PMS_P2;Temp;Humidity;BMP_temperature;BMP_pressure;BME280_temperature;BME280_humidity;BME280_pressure;Samples;Min_cycle;Max_cycle;Signal;HPM_P1;HPM_P2
2023/10/08 00:01:18;;;;;;;;;52.50;41.25;;;;;17.12;100.00;102418.00;5031464;28;45526;-86
2023/10/08 00:03:48;;;;;;;;;53.50;42.50;;;;;17.11;100.00;102416.22;5034718;28;45608;-84
2023/10/08 00:06:15;;;;;;;;;55.00;44.25;;;;;17.10;100.00;102417.97;5050324;28;45562;-84
2023/10/08 00:08:41;;;;;;;;;56.25;45.75;;;;;17.09;100.00;102413.50;5032380;28;47578;-84
2023/10/08 00:11:07;;;;;;;;;52.75;43.00;;;;;17.09;100.00;102410.81;5054494;28;45905;-85
2023/10/08 00:13:40;;;;;;;;;55.00;44.75;;;;;17.10;100.00;102417.06;5037457;28;45897;-79
2023/10/08 00:16:10;;;;;;;;;52.50;42.50;;;;;17.08;100.00;102422.38;5038390;28;45701;-79
2023/10/08 00:18:37;;;;;;;;;55.50;43.50;;;;;17.07;100.00;102422.38;5035501;28;47702;-78
2023/10/08 00:23:42;;;;;;;;;49.75;41.50;;;;;17.05;100.00;102433.06;5055061;28;45606;-79
2023/10/08 00:26:08;;;;;;;;;55.25;44.75;;;;;17.05;100.00;102430.38;5050721;28;45547;-79
2023/10/08 00:28:34;;;;;;;;;54.75;42.75;;;;;17.03;100.00;102433.03;5051351;28;45855;-79
2023/10/08 00:31:12;;;;;;;;;58.00;46.00;;;;;17.06;100.00;102426.84;5069394;27;45522;-79
2023/10/08 00:33:44;;;;;;;;;55.00;42.00;;;;;17.12;100.00;102431.34;5068943;28;45511;-79
2023/10/08 00:36:19;;;;;;;;;56.00;44.25;;;;;17.10;100.00;102428.66;5041063;28;45521;-83
2023/10/08 00:38:58;;;;;;;;;53.75;44.00;;;;;17.10;100.00;102431.31;5056306;28;45879;-81
2023/10/08 00:41:28;;;;;;;;;57.00;45.00;;;;;17.07;100.00;102423.28;5055513;28;45624;-83
2023/10/08 00:43:56;;;;;;;;;54.25;44.75;;;;;17.06;100.00;102426.84;5055549;28;45586;-81
2023/10/08 00:46:23;;;;;;;;;55.25;43.50;;;;;17.07;100.00;102425.94;5056246;28;45658;-85
2023/10/08 00:48:53;;;;;;;;;56.50;45.75;;;;;17.05;100.00;102425.06;5037340;28;47275;-80
2023/10/08 00:54:05;;;;;;;;;52.75;42.50;;;;;16.99;100.00;102435.63;5051990;28;45388;-86
2023/10/08 00:56:57;;;;;;;;;51.50;40.75;;;;;16.99;100.00;102431.22;5037828;28;45686;-84
2023/10/08 00:59:23;;;;;;;;;51.25;42.75;;;;;16.98;100.00;102425.84;5053781;28;46010;-80
2023/10/08 01:02:04;;;;;;;;;56.75;43.00;;;;;16.97;100.00;102421.41;5054140;28;45633;-76
2023/10/08 01:04:33;;;;;;;;;51.00;42.00;;;;;16.94;100.00;102421.38;5055876;28;45530;-76
2023/10/08 01:07:12;;;;;;;;;49.75;42.00;;;;;16.93;100.00;102425.78;5056327;28;45485;-79
2023/10/08 01:09:40;;;;;;;;;52.00;40.50;;;;;16.89;100.00;102425.78;5041773;28;47323;-79
2023/10/08 01:14:49;;;;;;;;;51.75;41.50;;;;;16.86;100.00;102423.06;5068734;28;45504;-79
2023/10/08 01:17:16;;;;;;;;;49.50;41.25;;;;;16.84;100.00;102424.84;5059488;28;45462;-79
2023/10/08 01:19:54;;;;;;;;;52.50;43.00;;;;;16.84;100.00;102414.16;5039807;28;47947;-78
2023/10/08 01:22:21;;;;;;;;;49.75;39.75;;;;;16.82;100.00;102416.78;5037954;28;45848;-79
2023/10/08 01:24:48;;;;;;;;;48.00;40.00;;;;;16.80;100.00;102412.34;5052797;28;45525;-79
2023/10/08 01:27:24;;;;;;;;;49.75;40.50;;;;;16.79;100.00;102410.56;5052439;28;45324;-79
2023/10/08 01:29:50;;;;;;;;;54.50;41.00;;;;;16.76;100.00;102403.38;5056075;28;45471;-79
2023/10/08 01:32:21;;;;;;;;;48.75;38.25;;;;;16.75;100.00;102399.84;5051410;28;45610;-79
2023/10/08 01:34:47;;;;;;;;;49.50;38.00;;;;;16.72;100.00;102399.81;5052855;28;45498;-79
2023/10/08 01:37:16;;;;;;;;;50.00;40.00;;;;;16.69;100.00;102398.84;5052480;28;45510;-78
2023/10/08 01:39:42;;;;;;;;;46.50;38.50;;;;;16.67;100.00;102409.50;5037021;28;47567;-79
2023/10/08 01:42:16;;;;;;;;;50.00;39.75;;;;;16.69;100.00;102406.84;5069169;28;45573;-79
2023/10/08 01:44:45;;;;;;;;;47.00;38.75;;;;;16.67;100.00;102398.84;5060472;28;45616;-79
2023/10/08 01:47:11;;;;;;;;;47.75;38.75;;;;;16.64;100.00;102397.91;5055098;28;45472;-79
2023/10/08 01:49:39;;;;;;;;;50.75;40.00;;;;;16.64;100.00;102392.56;5052968;28;46437;-79
2023/10/08 01:52:07;;;;;;;;;48.50;40.75;;;;;16.60;100.00;102388.97;5056338;28;45508;-78
2023/10/08 01:54:35;;;;;;;;;49.25;39.25;;;;;16.60;100.00;102396.97;5055617;28;45541;-78
2023/10/08 01:57:01;;;;;;;;;48.25;38.25;;;;;16.59;100.00;102392.50;5053946;28;45363;-78
2023/10/08 01:59:26;;;;;;;;;43.25;37.75;;;;;16.56;100.00;102387.13;5035207;28;47351;-78
2023/10/08 02:01:55;;;;;;;;;42.00;37.50;;;;;16.56;100.00;102387.13;5054575;28;45487;-79
2023/10/08 02:04:21;;;;;;;;;44.75;37.50;;;;;16.56;100.00;102392.47;5053238;28;45508;-78
2023/10/08 02:06:47;;;;;;;;;51.00;40.50;;;;;16.53;100.00;102379.13;5050637;28;45516;-78
2023/10/08 02:09:13;;;;;;;;;48.00;38.25;;;;;16.50;100.00;102377.28;5052086;28;46021;-78
2023/10/08 02:11:49;;;;;;;;;48.00;39.75;;;;;16.49;100.00;102375.50;5053496;28;45444;-80
2023/10/08 02:14:15;;;;;;;;;42.75;37.00;;;;;16.49;100.00;102370.19;5054917;28;45483;-78
2023/10/08 02:16:42;;;;;;;;;47.00;36.00;;;;;16.49;100.00;102367.50;5037653;28;45812;-78
2023/10/08 02:19:10;;;;;;;;;43.50;36.00;;;;;16.48;100.00;102368.38;5048323;28;46966;-79
2023/10/08 02:21:37;;;;;;;;;48.00;36.25;;;;;16.46;100.00;102363.94;5036577;28;45599;-79
2023/10/08 02:24:03;;;;;;;;;40.50;34.75;;;;;16.44;100.00;102368.34;5056641;28;45587;-79
2023/10/08 02:26:29;;;;;;;;;41.50;35.00;;;;;16.42;100.00;102368.31;5054986;28;45635;-78
2023/10/08 02:28:54;;;;;;;;;37.50;33.00;;;;;16.41;100.00;102357.66;5058218;27;54511;-79
2023/10/08 02:31:20;;;;;;;;;45.25;35.00;;;;;16.40;100.00;102363.84;5053310;28;50785;-79
2023/10/08 02:33:45;;;;;;;;;38.50;34.25;;;;;16.39;100.00;102360.28;5053064;27;45904;-79
2023/10/08 02:36:10;;;;;;;;;38.75;34.75;;;;;16.38;100.00;102358.50;5053190;28;45428;-78
2023/10/08 02:38:38;;;;;;;;;43.25;35.00;;;;;16.39;100.00;102362.94;5035052;28;48376;-79
2023/10/08 02:41:06;;;;;;;;;41.25;31.00;;;;;16.42;100.00;102362.09;5051614;28;45414;-78
2023/10/08 02:43:34;;;;;;;;;34.25;32.50;;;;;16.39;100.00;102362.06;5041073;28;45762;-79
2023/10/08 02:46:00;;;;;;;;;47.50;34.00;;;;;16.40;100.00;102375.38;5037349;28;45661;-79
2023/10/08 02:48:27;;;;;;;;;37.00;32.50;;;;;16.37;100.00;102366.50;5034583;28;47298;-79
2023/10/08 02:50:54;;;;;;;;;27.75;27.75;;;;;16.33;100.00;102368.22;5056380;28;45740;-78
2023/10/08 02:53:23;;;;;;;;;39.00;35.00;;;;;16.31;100.00;102367.31;5056804;28;45573;-78
2023/10/08 02:55:49;;;;;;;;;36.00;31.00;;;;;16.32;100.00;102353.09;5056965;28;45529;-78
2023/10/08 02:58:15;;;;;;;;;39.25;31.25;;;;;16.32;100.00;102350.44;5055426;28;47932;-78
2023/10/08 03:00:49;;;;;;;;;33.50;31.75;;;;;16.30;100.00;102357.53;5059705;28;45949;-78
2023/10/08 03:03:22;;;;;;;;;29.25;26.50;;;;;16.31;100.00;102353.09;5073925;27;45370;-77
2023/10/08 03:05:52;;;;;;;;;34.75;31.00;;;;;16.30;100.00;102364.59;5035174;28;45527;-78
2023/10/08 03:08:22;;;;;;;;;30.75;27.00;;;;;16.27;100.00;102367.25;5049776;28;47135;-78
2023/10/08 03:10:55;;;;;;;;;31.00;25.25;;;;;16.25;100.00;102361.91;5053469;28;45697;-78
2023/10/08 03:13:21;;;;;;;;;35.50;30.25;;;;;16.23;100.00;102364.53;5050479;28;45490;-79
2023/10/08 03:15:57;;;;;;;;;31.25;29.25;;;;;16.21;100.00;102363.63;5050822;28;45642;-79
2023/10/08 03:18:22;;;;;;;;;35.50;29.75;;;;;16.21;100.00;102366.28;5052653;28;45662;-78
2023/10/08 03:20:49;;;;;;;;;34.00;32.25;;;;;16.19;100.00;102368.06;5052763;28;45445;-78
2023/10/08 03:23:35;;;;;;;;;34.25;31.00;;;;;16.19;100.00;102360.06;5051379;28;45738;-79
2023/10/08 03:26:11;;;;;;;;;33.00;28.00;;;;;16.16;100.00;102368.00;5040612;28;45577;-79
2023/10/08 03:28:38;;;;;;;;;41.25;31.25;;;;;16.18;100.00;102363.59;5065206;28;46454;-77
2023/10/08 03:31:16;;;;;;;;;30.50;27.75;;;;;16.20;100.00;102371.63;5051904;28;45468;-79
2023/10/08 03:33:43;;;;;;;;;32.25;29.00;;;;;16.17;100.00;102366.25;5053213;28;46082;-79
2023/10/08 03:36:20;;;;;;;;;29.25;26.50;;;;;16.14;100.00;102367.09;5055375;28;45374;-79
2023/10/08 03:38:56;;;;;;;;;30.25;29.00;;;;;16.15;100.00;102366.22;5035286;28;47666;-78
2023/10/08 03:41:29;;;;;;;;;34.25;29.00;;;;;16.14;100.00;102377.78;5055511;28;45473;-79
2023/10/08 03:44:16;;;;;;;;;35.00;28.50;;;;;16.11;100.00;102374.16;5052804;28;45599;-78
2023/10/08 03:46:42;;;;;;;;;33.00;29.50;;;;;16.08;100.00;102379.44;5054056;28;45402;-77
2023/10/08 03:49:24;;;;;;;;;28.25;24.50;;;;;16.04;100.00;102370.53;5035354;28;48767;-77
2023/10/08 03:51:57;;;;;;;;;28.00;26.00;;;;;16.11;100.00;102382.16;5041616;28;45905;-79
2023/10/08 03:55:13;;;;;;;;;29.75;26.00;;;;;16.09;100.00;102381.25;5053875;28;46047;-78
2023/10/08 03:57:19;;;;;;;;;30.50;25.25;;;;;16.08;100.00;102390.09;5053248;27;45535;-79
2023/10/08 03:59:48;;;;;;;;;28.50;27.00;;;;;16.02;100.00;102376.69;5057116;28;47679;-78
2023/10/08 04:02:14;;;;;;;;;26.75;25.75;;;;;16.04;100.00;102386.50;5047413;28;45555;-78
2023/10/08 04:04:56;;;;;;;;;26.00;25.00;;;;;16.05;100.00;102388.28;5056306;28;45722;-78
2023/10/08 04:07:39;;;;;;;;;30.25;25.75;;;;;16.05;100.00;102379.41;5036570;28;45521;-77
2023/10/08 04:12:34;;;;;;;;;27.25;22.75;;;;;15.96;100.00;102378.41;5052941;28;45460;-77
2023/10/08 04:15:01;;;;;;;;;26.00;24.00;;;;;15.97;100.00;102384.63;5037115;28;45485;-78
2023/10/08 04:17:27;;;;;;;;;30.75;25.75;;;;;15.96;100.00;102378.41;5056732;28;45439;-77
2023/10/08 04:19:52;;;;;;;;;27.50;25.25;;;;;15.96;100.00;102377.50;5051617;28;61354;-78
2023/10/08 04:22:18;;;;;;;;;29.50;26.50;;;;;15.94;100.00;102369.50;5036774;28;45898;-78
2023/10/08 04:24:44;;;;;;;;;35.25;30.00;;;;;15.92;100.00;102365.91;5050456;28;45576;-77
2023/10/08 04:27:09;;;;;;;;;27.75;27.25;;;;;15.96;100.00;102372.19;5054963;28;45658;-77
2023/10/08 04:29:37;;;;;;;;;27.75;23.50;;;;;15.97;100.00;102374.84;5035455;28;47718;-78
2023/10/08 04:32:12;;;;;;;;;26.75;25.75;;;;;15.99;100.00;102372.22;5045514;28;45523;-78
2023/10/08 04:34:37;;;;;;;;;33.50;28.25;;;;;15.91;100.00;102377.44;5039601;28;45413;-78
2023/10/08 04:37:12;;;;;;;;;29.75;26.75;;;;;15.94;100.00;102377.50;5058980;28;54621;-77
2023/10/08 04:39:40;;;;;;;;;27.75;25.25;;;;;15.90;100.00;102375.66;5038882;28;47357;-77
2023/10/08 04:42:10;;;;;;;;;26.25;25.25;;;;;15.88;100.00;102380.09;5040764;28;45508;-78
2023/10/08 04:44:39;;;;;;;;;26.75;23.00;;;;;15.89;100.00;102379.19;5042290;28;45480;-77
2023/10/08 04:47:06;;;;;;;;;30.25;28.00;;;;;15.84;100.00;102385.34;5059702;28;45854;-79
2023/10/08 04:49:33;;;;;;;;;26.50;24.00;;;;;15.83;100.00;102380.91;5053440;28;45685;-78
2023/10/08 04:52:13;;;;;;;;;31.00;26.50;;;;;15.83;100.00;102368.47;5053112;28;45508;-77
2023/10/08 04:54:40;;;;;;;;;22.75;22.75;;;;;15.82;100.00;102376.41;5058124;28;45603;-77
2023/10/08 04:57:07;;;;;;;;;26.50;24.50;;;;;15.82;100.00;102376.41;5045752;28;45550;-77
2023/10/08 04:59:33;;;;;;;;;26.25;24.00;;;;;15.81;100.00;102371.97;5041248;28;47358;-78
2023/10/08 05:02:12;;;;;;;;;34.50;28.00;;;;;15.77;100.00;102370.16;5039050;28;45544;-79
2023/10/08 05:12:42;;;;;;;;;28.50;25.75;;;;;15.74;100.00;102376.31;5052593;28;46889;-77
2023/10/08 05:23:20;;;;;;;;;27.25;25.50;;;;;15.71;100.00;102393.16;5055434;28;45389;-78
2023/10/08 05:28:30;;;;;;;;;30.25;25.50;;;;;15.73;100.00;102386.97;5055845;28;45526;-77
2023/10/08 05:31:36;;;;;;;;;30.75;27.75;;;;;15.73;100.00;102390.50;5051883;28;46677;-78
2023/10/08 05:34:14;;;;;;;;;28.50;22.00;;;;;15.71;100.00;102382.50;5051792;28;45497;-79
2023/10/08 05:42:05;;;;;;;;;27.00;24.00;;;;;15.61;100.00;102383.22;5053893;28;45598;-77
2023/10/08 05:44:39;;;;;;;;;28.00;24.25;;;;;15.59;100.00;102378.72;5053490;28;45509;-78
2023/10/08 05:50:28;;;;;;;;;28.75;25.50;;;;;15.59;100.00;102384.03;5070674;28;47041;-77
2023/10/08 05:52:50;;;;;;;;;24.75;24.75;;;;;15.57;100.00;102388.47;5055993;28;46400;-77
2023/10/08 05:55:25;;;;;;;;;25.50;25.50;;;;;15.55;100.00;102388.41;5056291;28;45627;-78
2023/10/08 05:58:13;;;;;;;;;25.75;21.00;;;;;15.55;100.00;102390.19;5053856;28;45519;-77
2023/10/08 06:01:03;;;;;;;;;25.25;24.00;;;;;15.58;100.00;102391.13;5056690;28;45476;-77
2023/10/08 06:03:32;;;;;;;;;22.50;21.50;;;;;15.58;100.00;102392.91;5050565;28;48558;-78
2023/10/08 06:06:22;;;;;;;;;26.75;24.50;;;;;15.57;100.00;102389.34;5056242;28;45689;-78
2023/10/08 06:09:04;;;;;;;;;25.25;25.25;;;;;15.57;100.00;102397.34;5065207;28;45456;-77
2023/10/08 06:11:55;;;;;;;;;26.25;23.50;;;;;15.59;100.00;102394.69;5048067;28;46405;-77
2023/10/08 06:17:23;;;;;;;;;27.00;24.75;;;;;15.54;100.00;102394.63;5051705;28;45550;-77
2023/10/08 06:19:52;;;;;;;;;24.00;21.50;;;;;15.56;100.00;102403.53;5052091;28;45594;-77
2023/10/08 06:22:18;;;;;;;;;26.00;24.25;;;;;15.55;100.00;102408.81;5037320;28;45941;-77
2023/10/08 06:24:44;;;;;;;;;26.00;23.00;;;;;15.55;100.00;102407.03;5053875;28;47480;-76
2023/10/08 06:27:09;;;;;;;;;26.25;24.75;;;;;15.57;100.00;102407.09;5057075;28;45438;-78
2023/10/08 06:29:44;;;;;;;;;28.50;24.50;;;;;15.58;100.00;102417.75;5052993;28;45459;-77
2023/10/08 06:32:09;;;;;;;;;27.00;24.00;;;;;15.57;100.00;102408.00;5068367;28;45683;-78
2023/10/08 06:34:40;;;;;;;;;29.25;24.00;;;;;15.59;100.00;102408.91;5038277;28;47598;-77
2023/10/08 06:37:06;;;;;;;;;29.25;24.00;;;;;15.63;100.00;102415.22;5056030;28;45440;-76
2023/10/08 06:39:47;;;;;;;;;26.00;24.75;;;;;15.63;100.00;102415.22;5065862;28;45889;-76
2023/10/08 06:42:16;;;;;;;;;26.00;23.00;;;;;15.67;100.00;102420.59;5050598;28;45625;-79
2023/10/08 06:44:46;;;;;;;;;31.00;27.25;;;;;15.68;100.00;102425.06;5045052;28;45448;-78
2023/10/08 06:47:13;;;;;;;;;29.25;24.75;;;;;15.69;100.00;102413.53;5055180;28;45545;-78
2023/10/08 06:49:41;;;;;;;;;30.50;27.75;;;;;15.75;100.00;102415.38;5034769;28;45484;-76
2023/10/08 06:52:10;;;;;;;;;30.25;27.00;;;;;15.79;100.00;102416.34;5044934;28;45397;-76
2023/10/08 06:54:36;;;;;;;;;29.00;25.25;;;;;15.79;100.00;102419.91;5049847;28;45566;-76
2023/10/08 06:57:01;;;;;;;;;29.25;27.75;;;;;15.83;100.00;102427.06;5049524;28;45616;-76
2023/10/08 06:59:31;;;;;;;;;30.25;24.75;;;;;15.80;100.00;102429.66;5049654;28;45413;-74
2023/10/08 07:01:58;;;;;;;;;25.25;24.75;;;;;15.82;100.00;102429.69;5052092;28;45806;-76
2023/10/08 07:04:24;;;;;;;;;24.50;23.25;;;;;15.82;100.00;102440.34;5036686;28;48577;-76
2023/10/08 07:06:50;;;;;;;;;28.00;22.25;;;;;15.81;100.00;102433.22;5045086;28;45508;-74
2023/10/08 07:11:57;;;;;;;;;22.75;21.75;;;;;15.75;100.00;102441.13;5043776;28;45891;-73
2023/10/08 07:14:28;;;;;;;;;24.50;24.50;;;;;15.73;100.00;102437.56;5048967;28;48083;-73
2023/10/08 07:16:58;;;;;;;;;24.25;23.00;;;;;15.68;100.00;102437.47;5052275;28;45584;-76
2023/10/08 07:19:36;;;;;;;;;32.75;27.00;;;;;15.67;100.00;102441.03;5057093;28;45603;-75
2023/10/08 07:22:05;;;;;;;;;29.50;22.50;;;;;15.69;100.00;102440.16;5051973;28;45573;-77
2023/10/08 07:24:34;;;;;;;;;24.50;24.25;;;;;15.71;100.00;102448.16;5061099;27;46629;-76
2023/10/08 07:27:02;;;;;;;;;31.00;23.50;;;;;15.75;100.00;102449.13;5051455;28;45539;-75
2023/10/08 07:29:27;;;;;;;;;24.50;24.50;;;;;15.76;100.00;102445.56;5052055;28;45850;-73
2023/10/08 07:31:53;;;;;;;;;24.25;21.75;;;;;15.81;100.00;102439.44;5056484;28;56124;-74
2023/10/08 07:34:25;;;;;;;;;25.00;23.00;;;;;15.84;100.00;102449.28;5054300;28;47545;-77
2023/10/08 07:36:54;;;;;;;;;24.50;24.25;;;;;15.89;100.00;102451.13;5041835;28;46315;-77
2023/10/08 07:39:25;;;;;;;;;24.25;24.25;;;;;15.93;100.00;102441.44;5050331;28;45686;-77
2023/10/08 07:41:54;;;;;;;;;27.75;23.00;;;;;16.00;100.00;102451.28;5047950;28;45550;-76
2023/10/08 07:44:21;;;;;;;;;28.50;25.00;;;;;16.07;100.00;102445.16;5032787;28;48227;-77
2023/10/08 07:46:51;;;;;;;;;26.50;21.75;;;;;16.15;100.00;102439.97;5038921;28;45721;-77
2023/10/08 07:49:20;;;;;;;;;33.75;24.25;;;;;16.25;100.00;102441.88;5048635;28;45524;-77
2023/10/08 07:51:50;;;;;;;;;29.75;24.25;;;;;16.36;100.00;102436.69;5041171;28;45850;-77
2023/10/08 07:54:19;;;;;;;;;31.00;28.00;;;;;16.48;100.00;102448.38;5045432;28;46783;-76
2023/10/08 07:56:47;;;;;;;;;31.25;26.25;;;;;16.56;100.00;102444.91;5058788;27;47021;-76
2023/10/08 07:59:14;;;;;;;;;34.00;31.00;;;;;16.61;100.00;102443.19;5052197;28;46011;-77
2023/10/08 08:01:42;;;;;;;;;34.25;31.75;;;;;16.64;100.00;102446.78;5052796;28;45613;-76
2023/10/08 08:04:10;;;;;;;;;35.25;31.00;;;;;16.68;100.00;102445.97;5052513;28;45829;-77
2023/10/08 08:06:37;;;;;;;;;31.00;29.00;;;;;16.74;100.00;102454.06;5047897;28;46055;-75
2023/10/08 08:09:08;;;;;;;;;32.75;31.25;;;;;16.77;100.00;102447.84;5035366;28;45839;-74
2023/10/08 08:11:36;;;;;;;;;37.00;29.00;;;;;16.84;100.00;102448.84;5053870;28;45532;-77
2023/10/08 08:14:07;;;;;;;;;41.00;32.00;;;;;16.92;100.00;102439.13;5050036;28;46761;-76
2023/10/08 08:16:36;;;;;;;;;34.25;31.00;;;;;16.97;100.00;102440.06;5054108;28;45498;-76
2023/10/08 08:19:01;;;;;;;;;38.50;33.75;;;;;17.05;100.00;102435.72;5041986;28;45628;-77
2023/10/08 08:21:30;;;;;;;;;36.75;34.25;;;;;17.12;100.00;102439.34;5047540;28;51815;-76
2023/10/08 08:24:04;;;;;;;;;34.75;32.00;;;;;17.24;100.00;102444.78;5046950;28;47181;-76
2023/10/08 08:26:39;;;;;;;;;35.75;33.00;;;;;17.37;100.00;102441.38;5063355;27;46318;-77
2023/10/08 08:29:08;;;;;;;;;31.25;29.50;;;;;17.46;100.00;102440.53;5062358;27;45740;-76
2023/10/08 08:31:35;;;;;;;;;36.75;31.00;;;;;17.54;100.00;102437.06;5061128;27;45497;-77
2023/10/08 08:34:02;;;;;;;;;38.00;32.50;;;;;17.62;100.00;102439.75;5065391;27;46691;-77
2023/10/08 08:36:31;;;;;;;;;37.25;33.25;;;;;17.71;100.00;102442.50;5030950;28;45625;-78
2023/10/08 08:38:57;;;;;;;;;32.50;30.00;;;;;17.73;100.00;102442.53;5027660;28;46450;-77
2023/10/08 08:41:23;;;;;;;;;38.25;31.25;;;;;17.76;100.00;102434.56;5053037;28;45559;-77
2023/10/08 08:43:58;;;;;;;;;35.25;32.75;;;;;17.83;100.00;102439.06;5030910;28;47369;-77
2023/10/08 08:46:30;;;;;;;;;35.00;32.25;;;;;17.87;100.00;102440.88;5049869;28;45635;-78
2023/10/08 08:49:00;;;;;;;;;37.25;32.00;;;;;17.91;100.00;102433.78;5034119;28;45500;-79
2023/10/08 08:51:25;;;;;;;;;34.00;29.00;;;;;17.94;100.00;102434.69;5044109;28;45554;-79
2023/10/08 08:53:52;;;;;;;;;33.75;31.50;;;;;18.00;100.00;102436.50;5049781;28;46685;-78
2023/10/08 08:56:17;;;;;;;;;33.75;31.00;;;;;18.06;100.00;102437.44;5045129;28;45481;-77
2023/10/08 08:58:44;;;;;;;;;36.50;31.00;;;;;18.15;100.00;102438.38;5048148;28;52918;-78
2023/10/08 09:01:13;;;;;;;;;36.00;31.25;;;;;18.19;100.00;102433.03;5052672;28;50183;-78
2023/10/08 09:03:39;;;;;;;;;32.67;28.67;;;;;18.26;100.00;102441.97;5049987;28;46740;-77
2023/10/08 09:06:05;;;;;;;;;26.67;23.67;;;;;18.31;100.00;102434.88;5053993;28;45577;-77
2023/10/08 09:08:35;;;;;;;;;28.00;25.33;;;;;18.41;100.00;102431.38;5051935;28;45499;-77
2023/10/08 09:11:03;;;;;;;;;25.33;23.67;;;;;18.52;100.00;102434.06;5064857;27;45590;-77
2023/10/08 09:13:29;;;;;;;;;27.33;23.00;;;;;18.61;100.00;102430.56;5051201;28;46032;-78
2023/10/08 09:16:15;;;;;;;;;28.67;27.00;;;;;18.74;100.00;102433.28;5032416;28;46157;-77
2023/10/08 09:18:45;;;;;;;;;24.67;23.33;;;;;18.85;100.00;102425.28;5070212;27;45509;-79
2023/10/08 09:21:13;;;;;;;;;27.33;23.33;;;;;18.93;100.00;102423.53;5053621;28;45639;-78
2023/10/08 09:23:43;;;;;;;;;22.33;20.33;;;;;19.02;100.00;102422.66;5052707;28;45854;-78
2023/10/08 09:26:14;;;;;;;;;25.00;25.00;;;;;19.10;100.00;102418.19;5054020;28;45586;-77
2023/10/08 09:28:40;;;;;;;;;26.00;22.00;;;;;19.19;100.00;102412.84;5054410;28;45475;-76
2023/10/08 09:31:11;;;;;;;;;26.00;23.67;;;;;19.27;100.00;102408.38;5068976;28;45593;-78
2023/10/08 09:33:36;;;;;;;;;17.33;17.33;;;;;19.38;100.00;102405.69;5053908;28;46722;-77
2023/10/08 09:36:02;;;;;;;;;23.00;23.00;;;;;19.51;100.00;102407.50;5053860;28;45429;-77
2023/10/08 09:38:30;;;;;;;;;20.67;20.67;;;;;19.60;100.00;102399.50;5059402;28;45605;-77
2023/10/08 09:40:55;;;;;;;;;21.67;18.67;;;;;19.73;100.00;102394.09;5053977;28;45561;-77
2023/10/08 09:43:22;;;;;;;;;26.67;23.67;;;;;19.86;100.00;102396.72;5059953;28;45531;-78
2023/10/08 09:45:53;;;;;;;;;27.67;21.33;;;;;19.98;100.00;102386.91;5057212;28;45544;-79
2023/10/08 09:48:20;;;;;;;;;18.00;16.33;;;;;20.10;100.00;102386.84;5060440;28;45548;-78
2023/10/08 09:50:47;;;;;;;;;22.33;20.00;;;;;20.22;100.00;102389.47;5055353;28;45794;-77
2023/10/08 09:53:16;;;;;;;;;25.00;20.33;;;;;20.34;100.00;102383.16;5053893;28;46117;-77
2023/10/08 09:55:54;;;;;;;;;22.33;20.67;;;;;20.44;100.00;102384.00;5055971;28;45526;-78
2023/10/08 09:58:22;;;;;;;;;21.33;20.33;;;;;20.54;100.00;102370.56;5054163;28;45561;-77
2023/10/08 10:00:48;;;;;;;;;21.67;18.67;;;;;20.66;100.00;102373.16;5037221;28;45707;-77
2023/10/08 10:03:14;;;;;;;;;20.67;17.33;;;;;20.79;100.00;102373.09;5052011;28;45930;-77
2023/10/08 10:05:40;;;;;;;;;18.00;17.00;;;;;20.86;100.00;102373.03;5054421;28;45563;-78
2023/10/08 10:08:09;;;;;;;;;25.67;20.67;;;;;20.94;100.00;102364.94;5057863;28;45550;-77
2023/10/08 10:10:38;;;;;;;;;19.33;17.33;;;;;21.02;100.00;102370.25;5055631;28;45618;-77
2023/10/08 10:13:09;;;;;;;;;32.67;29.00;;;;;21.12;100.00;102369.28;5058037;28;45770;-77
2023/10/08 10:15:39;;;;;;;;;23.33;21.00;;;;;21.21;100.00;102365.63;5051745;28;45441;-76
2023/10/08 10:18:31;;;;;;;;;16.33;14.67;;;;;21.26;100.00;102363.78;5068326;28;45487;-77
2023/10/08 10:21:32;;;;;;;;;17.00;14.67;;;;;21.34;100.00;102361.94;5049713;28;46730;-76
2023/10/08 10:23:58;;;;;;;;;13.00;13.00;;;;;21.42;100.00;102360.09;5052655;28;46472;-76
2023/10/08 10:26:34;;;;;;;;;13.67;12.00;;;;;21.51;100.00;102357.28;5053755;28;45525;-78
2023/10/08 10:29:14;;;;;;;;;10.67;10.67;;;;;21.62;100.00;102359.88;5055807;28;45817;-76
2023/10/08 10:31:46;;;;;;;;;9.67;8.67;;;;;21.81;100.00;102350.72;5054166;28;45429;-76
2023/10/08 10:34:12;;;;;;;;;14.00;10.33;;;;;21.95;100.00;102348.75;5056682;28;45809;-76
2023/10/08 10:36:39;;;;;;;;;14.67;11.67;;;;;22.04;100.00;102350.44;5053912;28;45435;-77
2023/10/08 10:39:32;;;;;;;;;12.33;10.00;;;;;22.18;100.00;102347.59;5051496;28;45615;-76
2023/10/08 10:42:04;;;;;;;;;11.67;9.67;;;;;22.24;100.00;102350.22;5057208;28;45425;-77
2023/10/08 10:44:31;;;;;;;;;8.33;6.67;;;;;22.33;100.00;102338.44;5050964;28;45931;-76
2023/10/08 10:52:51;;;;;;;;;7.00;7.00;;;;;22.59;100.00;102344.34;5027588;28;45519;-76
2023/10/08 10:58:06;;;;;;;;;7.67;6.33;;;;;22.77;100.00;102342.28;5054892;28;45545;-76
2023/10/08 11:03:09;;;;;;;;;6.33;6.33;;;;;22.95;100.00;102326.72;5054840;27;45462;-77
2023/10/08 11:05:37;;;;;;;;;5.67;5.67;;;;;23.06;100.00;102323.84;5046972;28;47834;-77
2023/10/08 11:08:06;;;;;;;;;7.67;7.67;;;;;23.14;100.00;102323.75;5177767;22;45911;-78
2023/10/08 11:10:58;;;;;;;;;7.33;6.33;;;;;23.19;100.00;102327.25;4995335;28;45564;-77
2023/10/08 11:13:28;;;;;;;;;9.00;9.00;;;;;23.24;100.00;102328.06;4991567;28;46332;-76
2023/10/08 11:15:54;;;;;;;;;7.33;7.33;;;;;23.28;100.00;102324.38;4993462;28;46649;-76
2023/10/08 11:18:21;;;;;;;;;6.00;6.00;;;;;23.27;100.00;102326.16;4990727;28;45587;-75
2023/10/08 11:20:53;;;;;;;;;8.00;6.00;;;;;23.36;100.00;102321.53;4996848;28;45600;-74
2023/10/08 11:23:59;;;;;;;;;8.00;8.00;;;;;23.39;100.00;102317.00;4976542;28;45646;-76
2023/10/08 11:26:32;;;;;;;;;7.33;7.33;;;;;23.46;100.00;102317.75;4992465;28;46767;-76
2023/10/08 11:29:00;;;;;;;;;8.67;5.33;;;;;23.51;100.00;102316.75;4975349;28;45511;-76
2023/10/08 11:31:27;;;;;;;;;7.33;7.33;;;;;23.58;100.00;102319.31;4993421;28;45469;-75
2023/10/08 11:33:59;;;;;;;;;6.67;6.67;;;;;23.62;100.00;102315.66;4992337;28;45692;-76
2023/10/08 11:36:34;;;;;;;;;7.00;7.00;;;;;23.69;100.00;102312.81;4976778;28;47400;-76
2023/10/08 11:39:21;;;;;;;;;14.00;11.00;;;;;23.78;100.00;102304.56;4991317;28;45433;-76
2023/10/08 11:41:55;;;;;;;;;7.67;6.00;;;;;23.89;100.00;102298.94;4988613;28;45616;-76
2023/10/08 11:44:23;;;;;;;;;8.00;7.00;;;;;23.97;100.00;102293.38;4997604;28;45460;-76
2023/10/08 11:46:51;;;;;;;;;6.67;6.00;;;;;24.06;100.00;102282.38;4996805;28;46000;-75
2023/10/08 11:49:17;;;;;;;;;9.00;6.00;;;;;24.15;100.00;102281.31;4991799;28;45470;-76
2023/10/08 11:51:45;;;;;;;;;6.67;6.67;;;;;24.23;100.00;102277.47;4995527;28;45378;-77
2023/10/08 11:54:11;;;;;;;;;9.67;7.67;;;;;24.34;100.00;102266.44;4991271;28;45552;-77
2023/10/08 11:56:38;;;;;;;;;8.67;7.00;;;;;24.40;100.00;102260.06;4989833;28;45909;-76
2023/10/08 11:59:08;;;;;;;;;7.00;6.67;;;;;24.45;100.00;102258.13;4995571;28;46055;-75
2023/10/08 12:01:35;;;;;;;;;8.33;8.00;;;;;24.51;100.00;102258.88;4992489;28;45541;-77
2023/10/08 12:04:01;;;;;;;;;7.00;5.00;;;;;24.61;100.00;102253.22;4997927;28;45455;-76
2023/10/08 12:06:29;;;;;;;;;8.00;8.00;;;;;24.68;100.00;102249.47;4994275;28;46988;-77
2023/10/08 12:08:58;;;;;;;;;10.67;5.00;;;;;24.76;100.00;102250.16;4995409;28;45452;-76
2023/10/08 12:11:35;;;;;;;;;9.00;5.00;;;;;24.81;100.00;102242.81;4995385;28;45521;-76
2023/10/08 12:14:01;;;;;;;;;6.67;6.00;;;;;24.90;100.00;102250.69;4992093;28;45630;-76